Sint-Lievens-Houtem, Belgium
Current Conditions -  °F | °C
As of 3:25 AM on Saturday 22 Nov 2014 (Local Time) from EBCV Reporting Station
Clear Clear  
Wind Chill: 42°   Ceiling: Unl
Heat Index: 46°   Visibility: 4mi
Dew Point: 43°   Wind: 8mph
Humidity: 87%   Direction: 150°SSE
Pressure: 30"   Gusts: NA
Location:  50.92°N, 3.86°E
Report Text: EBCV 220225Z AUTO 15007KT 7000 NCD 08/06 Q1016 WHT
Loading
Personal Weather Stations






























Interactive Weather Map New forecast layout! Learn more

10-Day Weather Forecast

Advertisements
Track Severe Weather on mobile